createdAt,value
2018-08-19T00:02:16.293Z,52.87
2018-08-19T00:05:06.481Z,52.93
2018-08-19T00:07:35.610Z,52.75
2018-08-19T00:10:05.869Z,53.09
2018-08-19T00:12:40.298Z,53.42
2018-08-19T00:15:09.406Z,53.33
2018-08-19T00:17:38.554Z,52.88
2018-08-19T00:20:10.963Z,52.67
2018-08-19T00:22:40.170Z,52.90
2018-08-19T00:25:11.011Z,52.89
2018-08-19T00:27:40.076Z,52.45
2018-08-19T00:30:10.005Z,52.92
2018-08-19T00:32:39.103Z,54.11
2018-08-19T00:35:08.234Z,54.33
2018-08-19T00:37:37.453Z,54.25
2018-08-19T00:40:10.752Z,53.89
2018-08-19T00:42:39.945Z,54.08
2018-08-19T00:45:09.061Z,54.34
2018-08-19T00:47:38.193Z,54.49
2018-08-19T00:50:07.440Z,54.25
2018-08-19T00:52:39.173Z,54.15
2018-08-19T00:55:08.406Z,54.67
2018-08-19T00:57:40.279Z,54.45
2018-08-19T01:00:09.459Z,54.74
2018-08-19T01:02:38.581Z,54.54
2018-08-19T01:05:07.726Z,54.79
2018-08-19T01:07:36.871Z,54.52
2018-08-19T01:10:06.026Z,54.78
2018-08-19T01:12:35.143Z,55.03
2018-08-19T01:15:04.916Z,55.47
2018-08-19T01:17:39.314Z,55.16
2018-08-19T01:20:09.275Z,55.09
2018-08-19T01:22:41.015Z,55.30
2018-08-19T01:25:12.402Z,55.10
2018-08-19T01:27:41.553Z,55.46
2018-08-19T01:30:21.232Z,55.31
2018-08-19T01:32:50.379Z,55.23
2018-08-19T01:35:26.880Z,55.56
2018-08-19T01:37:56.010Z,55.83
2018-08-19T01:40:25.131Z,55.87
2018-08-19T01:42:54.233Z,55.67
2018-08-19T01:45:23.403Z,55.57
2018-08-19T01:47:52.574Z,55.72
2018-08-19T01:50:21.784Z,55.70
2018-08-19T01:52:51.274Z,55.56
2018-08-19T01:55:20.520Z,55.28
2018-08-19T01:57:50.683Z,55.42
2018-08-19T02:00:19.955Z,55.59
2018-08-19T02:03:04.660Z,55.60
2018-08-19T02:05:33.772Z,55.87
2018-08-19T02:08:03.954Z,56.27
2018-08-19T02:10:34.557Z,56.09
2018-08-19T02:13:03.820Z,56.61
2018-08-19T02:15:33.624Z,56.86
2018-08-19T02:18:04.827Z,56.43
2018-08-19T02:20:38.912Z,56.66
2018-08-19T02:23:09.616Z,56.51
2018-08-19T02:25:42.800Z,56.26
2018-08-19T02:28:12.590Z,57.39
2018-08-19T02:30:53.012Z,57.13
2018-08-19T02:33:23.306Z,56.86
2018-08-19T02:36:00.666Z,57.71
2018-08-19T02:38:29.899Z,57.50
2018-08-19T02:40:59.008Z,57.52
2018-08-19T02:43:28.167Z,57.81
2018-08-19T02:45:57.307Z,57.28
2018-08-19T02:48:45.698Z,57.69
2018-08-19T02:51:16.170Z,57.82
2018-08-19T02:53:46.461Z,57.91
2018-08-19T02:56:16.240Z,57.80
2018-08-19T02:58:46.523Z,57.81
2018-08-19T03:01:16.709Z,57.61
2018-08-19T03:03:45.839Z,57.40
2018-08-19T03:06:14.943Z,58.05
2018-08-19T03:08:50.149Z,58.62
2018-08-19T03:11:21.302Z,58.32
2018-08-19T03:13:50.487Z,58.95
2018-08-19T03:16:19.641Z,58.58
2018-08-19T03:18:51.146Z,57.77
2018-08-19T03:21:21.035Z,58.13
2018-08-19T03:23:51.785Z,58.40
2018-08-19T03:26:20.901Z,57.93
2018-08-19T03:28:50.050Z,57.76
2018-08-19T03:31:19.236Z,57.55
2018-08-19T03:33:48.354Z,57.87
2018-08-19T03:36:17.497Z,58.08
2018-08-19T03:38:46.606Z,57.50
2018-08-19T03:41:15.764Z,57.97
2018-08-19T03:43:49.001Z,58.04
2018-08-19T03:46:20.823Z,58.43
2018-08-19T03:48:50.365Z,58.29
2018-08-19T03:51:19.541Z,57.95
2018-08-19T03:53:48.759Z,58.38
2018-08-19T03:56:23.248Z,58.52
2018-08-19T03:58:56.243Z,58.40
2018-08-19T04:01:38.309Z,58.85
2018-08-19T04:04:07.503Z,58.66
2018-08-19T04:06:38.873Z,58.91
2018-08-19T04:09:08.245Z,58.74
2018-08-19T04:11:37.397Z,58.77
2018-08-19T04:14:26.193Z,59.56
2018-08-19T04:16:57.873Z,59.18
2018-08-19T04:19:27.665Z,58.67
2018-08-19T04:22:00.367Z,58.57
2018-08-19T04:24:29.962Z,58.71
2018-08-19T04:26:59.258Z,58.93
2018-08-19T04:29:28.979Z,58.44
2018-08-19T04:31:58.092Z,58.60
2018-08-19T04:34:27.309Z,58.41
2018-08-19T04:36:56.514Z,58.95
2018-08-19T04:39:25.601Z,58.93
2018-08-19T04:41:54.752Z,58.64
2018-08-19T04:44:23.892Z,58.53
2018-08-19T04:46:53.055Z,58.62
2018-08-19T04:49:22.243Z,58.19
2018-08-19T04:51:51.396Z,57.84
2018-08-19T04:54:20.564Z,57.56
2018-08-19T04:56:49.670Z,57.14
2018-08-19T04:59:18.811Z,57.25
2018-08-19T05:01:47.945Z,56.77
2018-08-19T05:04:17.136Z,56.43
2018-08-19T05:06:46.253Z,56.37
2018-08-19T05:09:15.387Z,55.98
2018-08-19T05:11:44.497Z,55.80
2018-08-19T05:14:13.672Z,55.74
2018-08-19T05:16:42.865Z,55.87
2018-08-19T05:19:12.037Z,55.52
2018-08-19T05:21:41.167Z,55.21
2018-08-19T05:24:10.342Z,54.70
2018-08-19T05:26:39.446Z,54.47
2018-08-19T05:29:10.904Z,54.54
2018-08-19T05:31:46.184Z,54.64
2018-08-19T05:34:20.739Z,54.87
2018-08-19T05:36:51.594Z,54.38
2018-08-19T05:39:20.761Z,53.72
2018-08-19T05:42:03.192Z,53.44
2018-08-19T05:44:34.700Z,53.19
2018-08-19T05:47:08.242Z,53.28
2018-08-19T05:49:39.090Z,52.58
2018-08-19T05:52:15.315Z,52.02
2018-08-19T05:54:49.883Z,51.62
2018-08-19T05:57:19.085Z,51.43
2018-08-19T05:59:49.449Z,51.29
2018-08-19T06:02:53.383Z,51.47
2018-08-19T06:05:22.522Z,50.45
2018-08-19T06:07:59.715Z,50.25
2018-08-19T06:10:28.951Z,49.44
2018-08-19T06:12:58.522Z,49.26
2018-08-19T06:15:28.804Z,48.66
2018-08-19T06:17:57.993Z,48.12
2018-08-19T06:20:29.617Z,47.96
2018-08-19T06:22:58.688Z,47.27
2018-08-19T06:25:27.973Z,47.37
2018-08-19T06:27:58.238Z,46.79
2018-08-19T06:30:27.351Z,47.44
2018-08-19T06:32:56.473Z,45.90
2018-08-19T06:35:25.643Z,44.94
2018-08-19T06:37:54.731Z,45.83
2018-08-19T06:40:24.583Z,45.82
2018-08-19T06:42:53.714Z,46.13
2018-08-19T06:45:22.844Z,45.96
2018-08-19T06:47:52.011Z,46.18
2018-08-19T06:50:24.425Z,46.24
2018-08-19T06:52:54.658Z,45.96
2018-08-19T06:55:23.788Z,45.88
2018-08-19T06:57:53.311Z,46.01
2018-08-19T07:00:31.623Z,46.72
2018-08-19T07:03:03.740Z,47.06
2018-08-19T07:05:33.634Z,46.46
2018-08-19T07:08:03.153Z,46.18
2018-08-19T07:10:36.509Z,46.57
2018-08-19T07:13:14.614Z,46.23
2018-08-19T07:15:44.653Z,45.43
2018-08-19T07:18:15.180Z,46.27
2018-08-19T07:20:45.059Z,46.78
2018-08-19T07:23:14.443Z,46.23
2018-08-19T07:25:44.562Z,45.76
2018-08-19T07:28:15.474Z,45.67
2018-08-19T07:30:44.685Z,44.51
2018-08-19T07:33:14.357Z,44.68
2018-08-19T07:35:43.650Z,44.22
2018-08-19T07:38:12.756Z,43.89
2018-08-19T07:40:41.797Z,43.70
2018-08-19T07:43:11.075Z,43.36
2018-08-19T07:45:40.207Z,42.94
2018-08-19T07:48:09.300Z,43.02
2018-08-19T07:50:38.424Z,42.52
2018-08-19T07:53:07.611Z,42.54
2018-08-19T07:55:36.697Z,42.27
2018-08-19T07:58:06.165Z,42.16
2018-08-19T08:00:39.175Z,41.37
2018-08-19T08:03:08.522Z,41.42
2018-08-19T08:05:42.905Z,40.58
2018-08-19T08:08:12.092Z,40.11
2018-08-19T08:10:41.191Z,40.20
2018-08-19T08:13:12.405Z,40.20
2018-08-19T08:15:46.655Z,39.38
2018-08-19T08:18:15.803Z,39.72
2018-08-19T08:20:44.906Z,39.26
2018-08-19T08:23:26.265Z,38.91
2018-08-19T08:25:55.342Z,38.54
2018-08-19T08:28:24.487Z,38.87
2018-08-19T08:30:53.661Z,39.00
2018-08-19T08:33:22.842Z,38.66
2018-08-19T08:35:58.113Z,37.68
2018-08-19T08:38:27.246Z,37.64
2018-08-19T08:40:56.299Z,36.57
2018-08-19T08:43:25.465Z,36.72
2018-08-19T08:45:57.365Z,37.43
2018-08-19T08:48:26.821Z,36.95
2018-08-19T08:50:56.085Z,36.38
2018-08-19T08:53:32.039Z,36.86
2018-08-19T08:56:01.352Z,36.61
2018-08-19T08:58:30.515Z,36.76
2018-08-19T09:00:59.817Z,35.98
2018-08-19T09:03:28.990Z,35.30
2018-08-19T09:05:58.295Z,35.53
2018-08-19T09:08:28.068Z,36.47
2018-08-19T09:10:59.187Z,35.67
2018-08-19T09:13:28.461Z,34.23
2018-08-19T09:15:57.656Z,33.21
2018-08-19T09:18:26.774Z,30.23
2018-08-19T09:20:55.856Z,27.47
2018-08-19T09:23:25.056Z,26.10
2018-08-19T09:25:54.131Z,25.94
2018-08-19T09:28:23.263Z,24.58
2018-08-19T09:30:52.376Z,23.76
2018-08-19T09:33:21.514Z,24.15
2018-08-19T09:35:50.739Z,24.66
2018-08-19T09:38:22.040Z,25.11
2018-08-19T09:40:51.343Z,24.16
2018-08-19T09:43:20.479Z,23.53
2018-08-19T09:45:49.663Z,23.39
2018-08-19T09:48:18.990Z,22.41
2018-08-19T09:50:48.094Z,22.19
2018-08-19T09:53:17.169Z,22.34
2018-08-19T09:55:51.994Z,21.57
2018-08-19T09:58:22.245Z,21.55
2018-08-19T10:00:56.694Z,22.33
2018-08-19T10:03:25.773Z,21.90
2018-08-19T10:05:54.878Z,21.76
2018-08-19T10:08:24.715Z,21.79
2018-08-19T10:10:53.871Z,21.45
2018-08-19T10:13:22.988Z,22.77
2018-08-19T10:15:52.309Z,22.13
2018-08-19T10:18:21.458Z,23.18
2018-08-19T10:20:50.583Z,22.62
2018-08-19T10:23:23.121Z,22.01
2018-08-19T10:25:53.105Z,22.89
2018-08-19T10:28:28.647Z,21.12
2018-08-19T10:30:58.096Z,22.26
2018-08-19T10:33:27.168Z,21.82
2018-08-19T10:35:59.016Z,22.04
2018-08-19T10:38:28.278Z,22.46
2018-08-19T10:41:03.460Z,22.91
2018-08-19T10:43:32.607Z,23.58
2018-08-19T10:46:01.703Z,23.33
2018-08-19T10:48:31.333Z,23.07
2018-08-19T10:51:03.239Z,22.99
2018-08-19T10:53:32.465Z,23.36
2018-08-19T10:56:02.922Z,23.71
2018-08-19T10:58:32.065Z,23.58
2018-08-19T11:01:01.166Z,23.61
2018-08-19T11:03:31.511Z,24.28
2018-08-19T11:06:00.642Z,22.90
2018-08-19T11:08:29.727Z,23.47
2018-08-19T11:11:00.290Z,23.65
2018-08-19T11:13:29.578Z,22.62
2018-08-19T11:15:59.242Z,23.86
2018-08-19T11:18:37.200Z,24.93
2018-08-19T11:21:12.128Z,25.82
2018-08-19T11:23:42.583Z,25.59
2018-08-19T11:26:11.943Z,26.97
2018-08-19T11:28:46.776Z,27.48
2018-08-19T11:31:22.643Z,27.92
2018-08-19T11:33:52.521Z,27.94
2018-08-19T11:36:24.514Z,27.88
2018-08-19T11:38:53.744Z,27.48
2018-08-19T11:41:22.862Z,27.23
2018-08-19T11:43:52.088Z,25.80
2018-08-19T11:46:21.158Z,25.51
2018-08-19T11:48:55.327Z,25.95
2018-08-19T11:51:41.459Z,25.84
2018-08-19T11:54:12.278Z,26.11
2018-08-19T11:56:41.351Z,26.54
2018-08-19T11:59:10.502Z,26.70
2018-08-19T12:01:39.704Z,25.87
2018-08-19T12:04:12.172Z,26.27
2018-08-19T12:06:41.240Z,25.89
2018-08-19T12:09:11.072Z,26.15
2018-08-19T12:11:41.214Z,26.07
2018-08-19T12:14:12.632Z,25.81
2018-08-19T12:16:50.456Z,25.26
2018-08-19T12:19:19.735Z,25.59
2018-08-19T12:21:54.422Z,25.51
2018-08-19T12:24:34.715Z,25.75
2018-08-19T12:27:05.054Z,25.62
2018-08-19T12:29:35.304Z,26.08
2018-08-19T12:32:14.935Z,25.73
2018-08-19T12:34:47.166Z,25.80
2018-08-19T12:37:17.294Z,25.39
2018-08-19T12:39:46.605Z,25.76
2018-08-19T12:42:15.739Z,25.81
2018-08-19T12:44:53.314Z,25.27
2018-08-19T12:47:25.599Z,25.00
2018-08-19T12:49:58.894Z,25.87
2018-08-19T12:52:29.325Z,25.88
2018-08-19T12:55:04.085Z,25.64
2018-08-19T12:57:33.552Z,25.09
2018-08-19T13:00:18.039Z,25.00
2018-08-19T13:02:49.139Z,25.34
2018-08-19T13:05:19.179Z,25.01
2018-08-19T13:07:48.308Z,25.03
2018-08-19T13:10:17.869Z,24.17
2018-08-19T13:12:52.103Z,25.09
2018-08-19T13:15:21.773Z,24.16
2018-08-19T13:17:57.538Z,24.33
2018-08-19T13:20:26.955Z,24.32
2018-08-19T13:22:59.501Z,23.94
2018-08-19T13:25:28.824Z,23.96
2018-08-19T13:27:57.986Z,23.52
2018-08-19T13:30:27.109Z,24.25
2018-08-19T13:32:56.229Z,23.92
2018-08-19T13:35:25.340Z,22.94
2018-08-19T13:37:54.538Z,24.43
2018-08-19T13:40:23.679Z,23.45
2018-08-19T13:42:52.735Z,23.48
2018-08-19T13:45:22.681Z,23.85
2018-08-19T13:47:54.154Z,23.75
2018-08-19T13:50:23.257Z,23.85
2018-08-19T13:52:59.230Z,23.67
2018-08-19T13:55:28.417Z,23.41
2018-08-19T13:57:57.525Z,23.62
2018-08-19T14:00:30.712Z,24.16
2018-08-19T14:02:59.878Z,23.76
2018-08-19T14:05:28.970Z,24.22
2018-08-19T14:07:58.095Z,24.91
2018-08-19T14:10:27.248Z,24.88
2018-08-19T14:12:56.359Z,24.43
2018-08-19T14:15:25.464Z,24.75
2018-08-19T14:17:54.555Z,25.36
2018-08-19T14:20:23.658Z,24.09
2018-08-19T14:22:52.807Z,24.83
2018-08-19T14:25:21.961Z,24.27
2018-08-19T14:27:51.163Z,23.88
2018-08-19T14:30:20.307Z,24.21
2018-08-19T14:32:49.485Z,23.85
2018-08-19T14:35:18.627Z,24.35
2018-08-19T14:37:47.731Z,24.59
2018-08-19T14:40:18.524Z,24.20
2018-08-19T14:42:47.661Z,23.72
2018-08-19T14:45:16.796Z,24.37
2018-08-19T14:47:45.963Z,24.31
2018-08-19T14:50:17.411Z,24.08
2018-08-19T14:52:46.607Z,24.47
2018-08-19T14:55:15.920Z,24.52
2018-08-19T14:57:45.165Z,25.75
2018-08-19T15:00:16.126Z,24.16
2018-08-19T15:02:45.405Z,24.21
2018-08-19T15:05:17.606Z,24.53
2018-08-19T15:07:47.004Z,24.27
2018-08-19T15:10:20.379Z,24.85
2018-08-19T15:12:49.577Z,24.19
2018-08-19T15:15:18.761Z,24.18
2018-08-19T15:17:53.019Z,24.31
2018-08-19T15:20:27.167Z,24.59
2018-08-19T15:23:19.217Z,24.71
2018-08-19T15:25:48.393Z,25.45
2018-08-19T15:28:18.197Z,25.43
2018-08-19T15:30:47.350Z,24.74
2018-08-19T15:33:16.940Z,24.71
2018-08-19T15:35:46.107Z,24.28
2018-08-19T15:38:15.293Z,24.10
2018-08-19T15:40:48.030Z,23.88
2018-08-19T15:43:17.275Z,23.67
2018-08-19T15:45:46.680Z,24.26
2018-08-19T15:48:15.817Z,25.69
2018-08-19T15:50:44.968Z,25.22
2018-08-19T15:53:14.140Z,25.69
2018-08-19T15:55:43.296Z,25.71
2018-08-19T15:58:12.433Z,25.96
2018-08-19T16:00:42.406Z,26.12
2018-08-19T16:03:12.665Z,26.15
2018-08-19T16:05:41.815Z,25.26
2018-08-19T16:08:11.028Z,25.88
2018-08-19T16:10:40.160Z,25.26
2018-08-19T16:13:11.198Z,26.08
2018-08-19T16:15:40.368Z,25.55
2018-08-19T16:18:09.642Z,26.29
2018-08-19T16:20:38.777Z,26.70
2018-08-19T16:23:07.906Z,27.02
2018-08-19T16:25:36.999Z,27.15
2018-08-19T16:28:06.292Z,26.59
2018-08-19T16:30:35.430Z,27.01
2018-08-19T16:33:04.626Z,26.92
2018-08-19T16:35:33.801Z,26.40
2018-08-19T16:38:02.942Z,26.29
2018-08-19T16:40:32.073Z,27.10
2018-08-19T16:43:07.920Z,27.01
2018-08-19T16:45:37.038Z,26.77
2018-08-19T16:48:06.577Z,27.41
2018-08-19T16:50:35.836Z,27.33
2018-08-19T16:53:04.847Z,26.67
2018-08-19T16:55:35.057Z,27.05
2018-08-19T16:58:04.237Z,26.71
2018-08-19T17:00:33.402Z,27.32
2018-08-19T17:03:12.712Z,27.09
2018-08-19T17:05:41.889Z,27.92
2018-08-19T17:08:11.092Z,28.34
2018-08-19T17:10:40.195Z,27.56
2018-08-19T17:13:09.397Z,28.09
2018-08-19T17:15:38.535Z,28.08
2018-08-19T17:18:08.315Z,28.18
2018-08-19T17:20:37.475Z,27.92
2018-08-19T17:23:06.587Z,28.21
2018-08-19T17:25:35.669Z,28.39
2018-08-19T17:28:10.207Z,29.17
2018-08-19T17:30:39.334Z,29.02
2018-08-19T17:33:09.619Z,30.31
2018-08-19T17:35:40.334Z,30.45
2018-08-19T17:38:09.512Z,30.00
2018-08-19T17:40:38.654Z,30.71
2018-08-19T17:43:08.251Z,30.78
2018-08-19T17:45:37.553Z,30.78
2018-08-19T17:48:06.674Z,31.57
2018-08-19T17:50:39.055Z,31.64
2018-08-19T17:53:08.566Z,32.34
2018-08-19T17:55:37.728Z,32.61
2018-08-19T17:58:07.044Z,32.21
2018-08-19T18:00:36.217Z,32.65
2018-08-19T18:03:05.378Z,34.21
2018-08-19T18:05:34.519Z,34.13
2018-08-19T18:08:03.637Z,35.50
2018-08-19T18:10:32.943Z,35.43
2018-08-19T18:13:02.199Z,35.59
2018-08-19T18:15:31.319Z,36.40
2018-08-19T18:18:04.750Z,37.01
2018-08-19T18:20:37.455Z,36.99
2018-08-19T18:23:15.919Z,38.23
2018-08-19T18:25:49.267Z,38.45
2018-08-19T18:28:22.949Z,39.28
2018-08-19T18:31:08.178Z,38.30
2018-08-19T18:34:00.234Z,38.60
2018-08-19T18:36:31.449Z,38.27
2018-08-19T18:39:00.926Z,39.62
2018-08-19T18:41:36.759Z,39.96
2018-08-19T18:44:07.097Z,39.48
2018-08-19T18:46:36.598Z,38.56
2018-08-19T18:49:12.855Z,39.99
2018-08-19T18:51:44.701Z,40.63
2018-08-19T18:54:21.984Z,40.78
2018-08-19T18:56:51.102Z,41.14
2018-08-19T18:59:20.263Z,40.79
2018-08-19T19:01:49.394Z,41.48
2018-08-19T19:04:18.566Z,41.69
2018-08-19T19:06:47.738Z,42.03
2018-08-19T19:09:16.940Z,42.57
2018-08-19T19:11:47.242Z,42.97
2018-08-19T19:14:20.520Z,42.99
2018-08-19T19:16:51.542Z,43.35
2018-08-19T19:19:20.860Z,43.22
2018-08-19T19:21:55.439Z,43.33
2018-08-19T19:24:30.030Z,43.49
2018-08-19T19:26:59.204Z,43.44
2018-08-19T19:29:29.028Z,44.26
2018-08-19T19:31:59.452Z,44.22
2018-08-19T19:34:31.298Z,44.64
2018-08-19T19:37:02.522Z,44.02
2018-08-19T19:39:31.792Z,45.13
2018-08-19T19:42:09.375Z,44.49
2018-08-19T19:44:38.523Z,45.33
2018-08-19T19:47:09.434Z,44.80
2018-08-19T19:49:48.435Z,44.97
2018-08-19T19:52:17.651Z,45.22
2018-08-19T19:54:46.770Z,44.52
2018-08-19T19:57:15.859Z,44.88
2018-08-19T19:59:45.072Z,45.71
2018-08-19T20:02:19.587Z,45.20
2018-08-19T20:04:48.747Z,45.63
2018-08-19T20:07:18.062Z,45.66
2018-08-19T20:09:47.223Z,45.37
2018-08-19T20:12:22.558Z,45.36
2018-08-19T20:14:51.836Z,44.99
2018-08-19T20:17:21.765Z,44.72
2018-08-19T20:19:51.324Z,44.06
2018-08-19T20:22:20.456Z,44.66
2018-08-19T20:24:49.566Z,45.57
2018-08-19T20:27:25.277Z,45.13
2018-08-19T20:29:55.148Z,45.38
2018-08-19T20:32:24.368Z,44.88
2018-08-19T20:34:53.539Z,43.93
2018-08-19T20:37:24.523Z,41.69
2018-08-19T20:39:54.233Z,41.59
2018-08-19T20:42:23.453Z,41.81
2018-08-19T20:44:53.030Z,41.59
2018-08-19T20:47:22.269Z,41.16
2018-08-19T20:49:51.601Z,40.78
2018-08-19T20:52:32.356Z,40.50
2018-08-19T20:55:01.524Z,40.83
2018-08-19T20:57:30.652Z,41.41
2018-08-19T20:59:59.896Z,41.75
2018-08-19T21:02:29.102Z,41.02
2018-08-19T21:04:58.260Z,41.03
2018-08-19T21:07:27.394Z,41.14
2018-08-19T21:09:56.487Z,41.22
2018-08-19T21:12:25.615Z,41.42
2018-08-19T21:14:54.853Z,41.77
2018-08-19T21:17:23.854Z,41.62
2018-08-19T21:19:53.014Z,42.00
2018-08-19T21:22:23.503Z,41.83
2018-08-19T21:24:52.622Z,42.25
2018-08-19T21:27:21.780Z,42.21
2018-08-19T21:29:51.000Z,41.96
2018-08-19T21:32:20.105Z,42.35
2018-08-19T21:34:49.234Z,42.38
2018-08-19T21:37:34.899Z,42.37
2018-08-19T21:40:05.216Z,42.47
2018-08-19T21:42:47.222Z,43.01
2018-08-19T21:45:16.356Z,42.92
2018-08-19T21:47:45.472Z,43.17
2018-08-19T21:50:14.633Z,43.30
2018-08-19T21:53:00.718Z,43.92
2018-08-19T21:55:32.046Z,44.18
2018-08-19T21:58:01.840Z,44.37
2018-08-19T22:00:40.529Z,44.81
2018-08-19T22:03:18.735Z,44.77
2018-08-19T22:05:48.800Z,44.89
2018-08-19T22:08:18.173Z,44.96
2018-08-19T22:10:48.282Z,44.96
2018-08-19T22:13:17.420Z,45.30
2018-08-19T22:15:47.186Z,45.34
2018-08-19T22:18:17.688Z,45.75
2018-08-19T22:21:07.925Z,45.64
2018-08-19T22:23:42.345Z,45.75
2018-08-19T22:26:12.422Z,45.64
2018-08-19T22:28:41.978Z,45.65
2018-08-19T22:31:25.418Z,45.99
2018-08-19T22:33:56.854Z,46.08
2018-08-19T22:36:26.136Z,46.42
2018-08-19T22:38:55.968Z,46.07
2018-08-19T22:41:27.410Z,46.65
2018-08-19T22:43:57.109Z,46.61
2018-08-19T22:46:26.905Z,45.77
2018-08-19T22:48:56.653Z,45.31
2018-08-19T22:51:28.626Z,44.99
2018-08-19T22:53:57.789Z,45.23
2018-08-19T22:56:26.967Z,45.34
2018-08-19T22:58:56.105Z,44.90
2018-08-19T23:01:29.319Z,44.88
2018-08-19T23:04:02.895Z,44.84
2018-08-19T23:06:32.717Z,44.62
2018-08-19T23:09:02.365Z,44.92
2018-08-19T23:11:37.056Z,44.48
2018-08-19T23:15:26.064Z,45.17
2018-08-19T23:17:55.134Z,44.84
2018-08-19T23:20:24.298Z,45.05
2018-08-19T23:22:53.424Z,45.03
2018-08-19T23:25:22.591Z,45.19
2018-08-19T23:27:51.774Z,45.31
2018-08-19T23:30:20.967Z,45.22
2018-08-19T23:32:50.108Z,45.15
2018-08-19T23:35:19.240Z,45.53
2018-08-19T23:37:48.346Z,45.59
2018-08-19T23:40:17.512Z,45.88
2018-08-19T23:42:46.656Z,46.03
2018-08-19T23:45:15.784Z,46.07
2018-08-19T23:47:44.877Z,46.12
2018-08-19T23:50:14.103Z,45.98
2018-08-19T23:52:43.555Z,46.32
2018-08-19T23:55:12.763Z,46.72
2018-08-19T23:57:41.980Z,46.57
